Overview Statistics Trail Chart Weather Telemetry Raw packets
 

This is the latest recevied weather packets stored in our database for station/object N4DWK. If no packets are shown the sender has not sent any weather packets the latest 10 day(s).

<< 90 91 92 93 94 95 96 >>
Time Temp. Humidity Pressure Rain* Wind** Luminosity Snow
1787953818 27.78° C 70% 1015.8 hPa 0 mm - 37 W/m² -
1787953508 27.78° C 69% 1015.8 hPa 0 mm - 51 W/m² -
1787953208 28.33° C 66% 1015.8 hPa 0 mm - 58 W/m² -
1787952908 28.33° C 66% 1015.7 hPa 0 mm - 60 W/m² -
1787952608 28.33° C 65% 1015.5 hPa 0 mm - 86 W/m² -
1787952307 28.33° C 65% 1015.6 hPa 0 mm - 77 W/m² -
1787952007 28.33° C 64% 1015.4 hPa 0 mm - 65 W/m² -
1787951707 28.33° C 65% 1015.5 hPa 0 mm - 113 W/m² -
1787951407 28.89° C 66% 1015.6 hPa 0 mm - 149 W/m² -
1787951108 29.44° C 66% 1015.6 hPa 0 mm - 118 W/m² -
1787950808 30° C 68% 1015.6 hPa 0 mm - 84 W/m² -
1787950510 29.44° C 71% 1015.6 hPa 0 mm - 371 W/m² -
1787950207 29.44° C 72% 1015.7 hPa 0 mm - 255 W/m² -
1787949908 30° C 69% 1015.7 hPa 0 mm - 84 W/m² -
1787949608 30.56° C 70% 1015.6 hPa 0 mm - 171 W/m² -
1787949307 30.56° C 69% 1015.7 hPa 0 mm - 322 W/m² -
1787949008 30° C 71% 1015.7 hPa 0 mm - 397 W/m² -
1787948707 30° C 69% 1015.5 hPa 0 mm - 137 W/m² -
1787948408 31.11° C 66% 1015.4 hPa 0 mm - 109 W/m² -
1787948108 32.22° C 63% 1015.3 hPa 0 mm - 97 W/m² -
1787947808 31.67° C 65% 1015.2 hPa 0 mm - 265 W/m² -
1787947508 32.22° C 65% 1015.2 hPa 0 mm - 93 W/m² -
1787947214 32.22° C 64% 1015.2 hPa 0 mm - 83 W/m² -
1787946907 32.78° C 62% 1015.1 hPa 0 mm - 121 W/m² -
1787946608 33.33° C 62% 1015.1 hPa 0 mm - 339 W/m² -

* Rain latest hour (hover to see other rain measurements)
** Current wind speed in m/s (hover to see current wind gust speed)